Time;durP1;ratioP1;P1;durP2;ratioP2;P2;SDS_P1;SDS_P2;PMS_P1;PMS_P2;Temp;Humidity;BMP_temperature;BMP_pressure;BME280_temperature;BME280_humidity;BME280_pressure;Samples;Min_cycle;Max_cycle;Signal;HPM_P1;HPM_P2
2022/07/03 00:03:29;;;;;;;2.08;1.90;;;21.80;37.30;;;19.91;39.41;101677.19;12245336;19;20042;-80
2022/07/03 00:07:31;;;;;;;1.80;1.70;;;21.70;37.30;;;19.56;39.64;101627.78;12248591;19;20479;-80
2022/07/03 00:11:33;;;;;;;1.85;1.75;;;21.70;37.40;;;19.88;39.72;101688.88;12239579;19;20047;-80
2022/07/03 00:15:36;;;;;;;2.08;1.63;;;21.60;37.40;;;19.62;40.02;101663.53;12247871;19;20541;-79
2022/07/03 00:19:37;;;;;;;1.63;1.52;;;21.60;37.40;;;19.51;39.96;101648.50;12236838;19;20365;-79
2022/07/03 00:23:54;;;;;;;1.80;1.70;;;21.50;37.40;;;19.59;39.94;101679.69;12238417;19;20490;-79
2022/07/03 00:27:55;;;;;;;;;;;21.50;37.50;;;19.51;39.38;101668.84;12238143;19;20382;-79
2022/07/03 00:32:00;;;;;;;2.38;1.55;;;21.40;37.00;;;19.00;40.30;101610.03;12241064;19;20325;-79
2022/07/03 00:36:02;;;;;;;2.77;1.77;;;21.30;37.50;;;19.22;40.53;101658.69;12239562;19;20014;-79
2022/07/03 00:40:05;;;;;;;3.05;1.73;;;21.20;37.60;;;19.16;40.51;101653.88;12241460;19;20042;-79
2022/07/03 00:44:06;;;;;;;2.03;1.83;;;21.10;37.80;;;18.83;40.59;101610.50;12242918;19;20038;-80
2022/07/03 00:48:10;;;;;;;1.70;1.60;;;21.10;37.90;;;18.97;40.54;101647.31;12241312;19;20019;-80
2022/07/03 00:52:14;;;;;;;1.95;1.85;;;21.00;38.00;;;19.04;40.67;101652.16;12240290;19;20014;-81
2022/07/03 00:56:19;;;;;;;2.58;1.73;;;21.00;38.10;;;18.91;40.82;101639.03;12244039;19;20018;-80
2022/07/03 01:00:20;;;;;;;2.25;1.98;;;21.20;38.20;;;18.94;40.75;101646.72;12236511;19;20010;-80
2022/07/03 01:04:36;;;;;;;2.00;1.80;;;20.90;38.20;;;18.86;41.00;101647.31;12244152;19;20092;-81
2022/07/03 01:08:51;;;;;;;3.40;1.83;;;20.80;38.30;;;18.78;41.11;101647.03;12240994;19;20010;-80
2022/07/03 01:13:13;;;;;;;2.30;2.10;;;20.70;38.40;;;18.60;41.16;101617.47;12244664;19;20010;-80
2022/07/03 01:17:31;;;;;;;1.90;1.80;;;20.80;38.50;;;18.67;41.41;101634.59;12240954;19;20033;-80
2022/07/03 01:21:52;;;;;;;1.55;1.48;;;20.70;38.50;;;18.77;41.27;101654.16;12237707;19;20022;-80
2022/07/03 01:25:55;;;;;;;1.98;1.83;;;20.60;38.70;;;18.58;41.15;101628.19;12244717;19;20093;-80
2022/07/03 01:30:06;;;;;;;1.73;1.63;;;20.60;38.70;;;18.65;41.35;101631.19;12238503;19;20014;-80
2022/07/03 01:34:16;;;;;;;2.13;1.92;;;20.50;38.80;;;18.63;41.48;101629.63;12243273;19;20010;-80
2022/07/03 01:38:20;;;;;;;1.88;1.75;;;20.50;38.90;;;18.48;41.48;101611.31;12238562;19;20448;-81
2022/07/03 01:42:24;;;;;;;1.95;1.83;;;20.40;38.80;;;18.38;41.78;101609.44;12239392;19;20017;-80
2022/07/03 01:46:32;;;;;;;1.77;1.67;;;20.40;38.80;;;18.33;41.67;101613.31;12239498;19;20030;-80
2022/07/03 01:50:35;;;;;;;2.25;2.03;;;20.30;38.90;;;18.22;41.67;101613.22;12232892;19;20018;-80
2022/07/03 01:54:39;;;;;;;2.35;2.15;;;20.30;39.00;;;18.29;42.22;101632.13;12242306;19;20047;-80
2022/07/03 01:58:41;;;;;;;2.33;2.13;;;20.40;39.10;;;18.02;42.20;101601.47;12238683;19;20544;-80
2022/07/03 02:03:01;;;;;;;1.80;1.70;;;20.40;39.20;;;18.06;42.30;101617.94;12241233;19;20011;-81
2022/07/03 02:07:16;;;;;;;2.15;1.95;;;20.10;39.40;;;18.00;42.63;101631.59;12238676;19;20018;-80
2022/07/03 02:11:22;;;;;;;2.50;2.03;;;20.00;39.40;;;17.76;42.46;101605.94;12238255;19;20011;-80
2022/07/03 02:15:34;;;;;;;2.28;1.85;;;20.00;39.40;;;17.54;42.73;101577.56;12237924;19;20018;-80
2022/07/03 02:19:59;;;;;;;1.77;1.67;;;19.90;39.60;;;17.72;42.71;101619.50;12240517;19;20019;-80
2022/07/03 02:24:22;;;;;;;2.55;2.03;;;19.80;39.50;;;17.69;42.77;101616.13;12239987;19;20027;-80
2022/07/03 02:29:04;;;;;;;1.98;1.88;;;19.70;39.70;;;17.61;42.75;101614.97;12241681;19;20460;-80
2022/07/03 02:33:10;;;;;;;2.38;2.05;;;19.60;39.80;;;17.46;42.83;101611.59;12236989;19;20007;-80
2022/07/03 02:37:15;;;;;;;;;;;19.60;39.70;;;17.38;42.12;101600.72;12241286;19;20010;-80
2022/07/03 02:41:27;;;;;;;2.03;1.58;;;19.50;39.20;;;16.94;43.00;101562.44;12235175;19;19915;-80
2022/07/03 02:45:45;;;;;;;2.35;1.90;;;19.70;39.90;;;16.82;43.14;101553.56;12241661;19;20074;-80
2022/07/03 02:50:03;;;;;;;1.90;1.80;;;19.30;40.00;;;17.16;43.20;101614.59;12235297;19;20022;-80
2022/07/03 02:54:17;;;;;;;2.00;1.80;;;19.30;40.00;;;17.14;43.41;101617.31;12241092;19;20081;-80
2022/07/03 02:58:50;;;;;;;2.83;1.95;;;19.30;40.30;;;17.09;43.81;101624.69;12235925;19;20018;-80
2022/07/03 03:02:56;;;;;;;1.80;1.70;;;19.10;40.40;;;16.91;43.59;101602.22;12239754;19;20018;-80
2022/07/03 03:07:15;;;;;;;2.85;2.05;;;19.10;40.40;;;16.94;43.62;101610.78;12237903;19;20002;-80
2022/07/03 03:11:48;;;;;;;2.10;2.00;;;19.00;40.60;;;16.98;43.59;101619.31;12234609;19;20022;-80
2022/07/03 03:16:07;;;;;;;3.40;2.30;;;19.30;40.90;;;16.93;44.01;101613.50;12236261;19;20346;-80
2022/07/03 03:20:18;;;;;;;2.35;2.15;;;19.00;40.80;;;17.00;44.04;101615.63;12234751;19;20019;-80
2022/07/03 03:24:22;;;;;;;1.95;1.83;;;18.90;41.00;;;16.57;43.79;101543.78;12245580;19;20023;-80
2022/07/03 03:28:24;;;;;;;2.28;2.08;;;19.10;41.00;;;16.75;43.82;101576.00;12247704;19;20011;-80
2022/07/03 03:32:27;;;;;;;2.17;1.98;;;19.20;41.00;;;16.87;44.05;101592.81;12249519;19;20006;-80
2022/07/03 03:36:30;;;;;;;2.03;1.90;;;19.20;41.20;;;17.02;43.93;101618.16;12245678;19;20015;-80
2022/07/03 03:40:33;;;;;;;1.92;1.83;;;18.90;41.10;;;16.80;44.04;101590.59;12246472;19;20480;-80
2022/07/03 03:44:34;;;;;;;2.47;2.00;;;18.90;41.30;;;16.92;44.24;101617.94;12249664;19;20033;-80
2022/07/03 03:48:36;;;;;;;2.33;1.95;;;18.90;41.30;;;16.97;44.30;101610.56;12244594;19;20360;-80
2022/07/03 03:52:38;;;;;;;2.20;2.05;;;19.20;41.60;;;17.02;44.23;101628.72;12246520;19;20096;-80
2022/07/03 03:56:40;;;;;;;2.30;2.10;;;18.90;41.50;;;17.00;44.54;101614.78;12246298;19;20042;-80
2022/07/03 04:00:42;;;;;;;2.15;1.95;;;19.00;41.70;;;17.08;44.48;101615.09;12243637;19;20288;-80
2022/07/03 04:04:44;;;;;;;2.60;2.40;;;19.00;41.80;;;17.03;44.76;101610.13;12247562;19;20010;-80
2022/07/03 04:08:46;;;;;;;2.63;2.00;;;19.00;41.90;;;17.05;44.81;101603.91;12242147;19;20014;-79
2022/07/03 04:12:47;;;;;;;3.10;2.20;;;19.00;42.00;;;17.07;44.82;101594.94;12247750;19;20085;-79
2022/07/03 04:16:49;;;;;;;2.28;2.10;;;19.00;42.10;;;16.99;44.79;101576.16;12245842;19;20021;-78
2022/07/03 04:20:51;;;;;;;2.45;2.25;;;19.00;42.20;;;17.05;45.10;101573.09;12243942;19;20012;-78
2022/07/03 04:24:53;;;;;;;1.95;1.85;;;19.10;42.30;;;16.93;45.15;101550.19;12246341;19;20023;-78
2022/07/03 04:28:55;;;;;;;2.60;2.40;;;19.10;42.40;;;17.27;44.93;101584.81;12241844;19;20007;-79
2022/07/03 04:32:56;;;;;;;2.22;2.03;;;19.10;42.50;;;17.40;45.01;101593.56;12247333;19;20015;-79
2022/07/03 04:36:58;;;;;;;2.60;2.40;;;19.20;42.60;;;17.46;45.24;101585.19;12245226;19;20020;-78
2022/07/03 04:41:00;;;;;;;2.60;2.40;;;19.30;42.80;;;17.58;45.26;101581.69;12242064;19;20039;-79
2022/07/03 04:45:03;;;;;;;2.53;2.33;;;19.50;42.90;;;17.79;45.29;101587.25;12245092;19;21890;-79
2022/07/03 04:49:05;;;;;;;2.58;2.38;;;19.50;43.00;;;17.97;45.28;101592.19;12239672;19;20465;-79
2022/07/03 04:53:07;;;;;;;2.60;2.20;;;19.80;43.00;;;18.10;45.27;101593.81;12245113;19;20018;-79
2022/07/03 04:57:09;;;;;;;2.80;2.20;;;19.70;43.10;;;18.21;45.23;101577.16;12243067;19;20023;-79
2022/07/03 05:01:11;;;;;;;2.38;2.15;;;20.00;43.30;;;18.43;45.49;101573.78;12243194;19;20471;-79
2022/07/03 05:05:13;;;;;;;2.63;2.38;;;20.10;43.30;;;18.73;45.26;101593.59;12242070;19;20487;-79
2022/07/03 05:09:15;;;;;;;2.63;2.33;;;20.30;43.30;;;18.93;45.52;101585.00;12242008;19;20041;-78
2022/07/03 05:13:16;;;;;;;2.80;2.60;;;20.40;43.20;;;19.20;45.51;101600.56;12242235;19;20019;-79
2022/07/03 05:17:18;;;;;;;2.35;2.20;;;20.70;43.30;;;19.30;45.53;101586.59;12244774;19;20021;-78
2022/07/03 05:21:20;;;;;;;2.50;2.30;;;20.90;43.30;;;19.53;45.55;101587.44;12240546;19;20021;-79
2022/07/03 05:25:22;;;;;;;2.55;2.35;;;21.00;43.10;;;19.64;45.41;101575.00;12242341;19;20011;-79
2022/07/03 05:29:24;;;;;;;5.38;2.50;;;21.20;42.90;;;19.52;45.21;101519.50;12237730;19;20014;-79
2022/07/03 05:33:26;;;;;;;3.88;2.30;;;21.40;43.20;;;19.93;45.25;101544.50;12245428;19;20022;-79
2022/07/03 05:37:28;;;;;;;6.85;2.20;;;21.70;43.10;;;19.87;45.39;101499.00;12243421;19;20019;-79
2022/07/03 05:41:30;;;;;;;2.75;2.05;;;21.80;43.00;;;20.47;45.42;101568.28;12239976;19;20480;-79
2022/07/03 05:45:31;;;;;;;2.58;2.38;;;22.00;42.90;;;20.61;45.21;101553.88;12240496;19;20495;-79
2022/07/03 05:49:33;;;;;;;2.22;2.13;;;22.20;42.90;;;20.89;44.85;101552.34;12238353;19;20025;-79
2022/07/03 05:53:35;;;;;;;4.10;2.40;;;22.60;43.00;;;21.31;44.96;101575.34;12241583;19;20056;-79
2022/07/03 05:57:37;;;;;;;2.28;2.08;;;22.60;43.00;;;21.42;44.63;101549.53;12241078;19;20010;-79
2022/07/03 06:01:38;;;;;;;2.75;2.08;;;22.90;42.70;;;21.73;44.63;101556.63;12240058;19;20023;-79
2022/07/03 06:05:40;;;;;;;1.98;1.88;;;23.20;42.80;;;22.04;44.61;101570.66;12243511;19;20050;-79
2022/07/03 06:09:43;;;;;;;2.42;2.22;;;23.40;42.50;;;22.28;44.33;101564.97;12236464;19;20078;-79
2022/07/03 06:13:45;;;;;;;2.22;2.03;;;23.70;42.40;;;22.34;44.24;101524.47;12241893;19;20014;-78
2022/07/03 06:17:47;;;;;;;3.35;2.15;;;23.90;42.10;;;22.59;44.07;101522.19;12240170;19;20549;-78
2022/07/03 06:21:49;;;;;;;2.17;1.98;;;24.30;41.70;;;23.03;43.67;101557.13;12239943;19;20085;-79
2022/07/03 06:25:51;;;;;;;3.47;1.77;;;24.60;41.20;;;23.01;43.95;101527.13;12241021;19;20030;-78
2022/07/03 06:29:52;;;;;;;2.20;2.00;;;24.60;41.10;;;23.38;43.46;101557.25;12219449;19;20020;-80
2022/07/03 06:33:54;;;;;;;2.97;2.08;;;24.80;40.50;;;23.55;43.70;101555.63;12235203;19;20085;-79
2022/07/03 06:38:03;;;;;;;1.88;1.77;;;24.90;40.70;;;23.63;43.21;101537.06;12234918;19;20018;-79
2022/07/03 06:42:04;;;;;;;1.83;1.73;;;25.10;40.20;;;23.90;42.88;101538.03;12231656;19;20364;-80
2022/07/03 06:46:06;;;;;;;1.85;1.73;;;25.30;40.10;;;24.14;42.89;101545.44;12229101;19;20563;-79
2022/07/03 06:50:08;;;;;;;2.10;1.90;;;25.50;40.00;;;24.27;42.49;101540.50;12230158;19;20019;-80
2022/07/03 06:54:10;;;;;;;1.63;1.52;;;25.70;39.70;;;24.34;42.45;101522.06;12234827;19;20015;-78
2022/07/03 06:58:14;;;;;;;2.53;1.80;;;25.90;39.70;;;24.43;42.50;101502.44;12242128;19;20073;-79
2022/07/03 07:02:16;;;;;;;1.77;1.67;;;26.10;39.60;;;24.65;42.29;101502.94;12241320;19;20020;-79
2022/07/03 07:06:18;;;;;;;2.85;1.60;;;26.30;39.50;;;25.08;42.24;101541.25;12245000;19;20018;-79
2022/07/03 07:10:20;;;;;;;1.80;1.70;;;26.40;39.30;;;25.30;41.80;101539.84;12242918;19;20015;-79
2022/07/03 07:14:21;;;;;;;3.22;1.90;;;26.60;38.80;;;25.45;41.67;101519.53;12246883;19;20507;-78
2022/07/03 07:18:23;;;;;;;2.05;1.85;;;26.80;38.80;;;25.56;41.49;101508.50;12247255;19;20011;-78
2022/07/03 07:22:25;;;;;;;2.72;1.77;;;27.00;38.40;;;25.66;40.92;101500.34;12246655;19;20352;-79
2022/07/03 07:26:27;;;;;;;1.63;1.55;;;27.10;38.20;;;25.64;40.76;101485.47;12248788;19;20015;-79
2022/07/03 07:30:28;;;;;;;2.17;1.98;;;27.30;37.90;;;25.95;40.62;101513.31;12234514;19;20028;-78
2022/07/03 07:34:30;;;;;;;1.65;1.55;;;27.40;38.10;;;26.12;40.60;101522.16;12247691;19;20062;-79
2022/07/03 07:38:33;;;;;;;1.70;1.60;;;27.50;38.00;;;26.30;40.04;101521.16;12248915;19;20014;-78
2022/07/03 07:42:34;;;;;;;1.70;1.60;;;27.70;37.50;;;26.39;40.31;101512.94;12238508;19;20011;-78
2022/07/03 07:46:36;;;;;;;1.92;1.80;;;27.80;37.30;;;26.51;40.02;101510.78;12249193;19;20021;-78
2022/07/03 07:50:38;;;;;;;1.77;1.67;;;27.90;37.20;;;26.56;39.65;101505.75;12239625;19;20006;-79
2022/07/03 07:54:40;;;;;;;2.42;2.22;;;28.10;37.00;;;26.67;39.30;101505.38;12242816;19;20052;-79
2022/07/03 07:58:42;;;;;;;2.38;2.00;;;28.10;36.90;;;26.78;39.16;101498.81;12217792;19;20018;-79
2022/07/03 08:07:05;;;;;;;1.70;1.60;;;28.30;36.90;;;27.04;38.90;101500.41;12226669;19;20015;-79
2022/07/03 08:11:07;;;;;;;1.77;1.67;;;28.40;36.80;;;27.15;39.00;101494.66;12227906;19;20413;-79
2022/07/03 08:15:09;;;;;;;1.95;1.70;;;28.60;36.50;;;27.23;38.92;101472.38;12226604;19;20022;-79
2022/07/03 08:19:10;;;;;;;4.88;2.10;;;28.70;36.70;;;27.41;38.82;101472.94;12225095;19;20362;-79
2022/07/03 08:23:12;;;;;;;3.00;1.80;;;28.80;36.60;;;27.61;38.56;101492.09;12228184;19;20033;-78
2022/07/03 08:27:13;;;;;;;1.92;1.83;;;29.00;36.20;;;27.62;38.36;101492.91;12229576;19;20010;-78
2022/07/03 08:31:15;;;;;;;1.52;1.42;;;29.10;36.00;;;27.75;38.36;101487.78;12226900;19;20123;-79
2022/07/03 08:35:17;;;;;;;1.80;1.70;;;29.10;35.90;;;27.75;38.18;101469.84;12224309;19;20022;-79
2022/07/03 08:39:19;;;;;;;1.70;1.60;;;29.20;35.70;;;27.86;37.71;101473.16;12226171;19;20011;-78
2022/07/03 08:43:21;;;;;;;1.88;1.77;;;29.30;35.60;;;27.74;37.13;101456.63;12227029;19;20522;-78
2022/07/03 08:47:23;;;;;;;1.80;1.70;;;29.40;35.10;;;27.69;37.58;101445.56;12227162;19;20120;-79
2022/07/03 08:51:26;;;;;;;1.73;1.60;;;29.30;35.20;;;27.66;37.06;101427.97;12081017;19;2765251;-79
2022/07/03 08:55:28;;;;;;;2.78;1.60;;;29.40;35.10;;;28.00;37.06;101453.56;12230374;19;20090;-78
2022/07/03 08:59:37;;;;;;;1.95;1.85;;;29.60;35.40;;;28.28;36.92;101469.09;12226473;19;20015;-78
2022/07/03 09:03:40;;;;;;;2.08;1.63;;;29.50;35.10;;;28.40;36.98;101463.06;12230149;19;20543;-78
2022/07/03 09:07:44;;;;;;;1.95;1.80;;;29.70;35.10;;;28.36;36.59;101437.59;12226733;19;20359;-79
2022/07/03 09:11:46;;;;;;;1.98;1.70;;;29.80;34.60;;;28.56;36.45;101466.63;12225704;19;20021;-79
2022/07/03 09:15:50;;;;;;;1.70;1.60;;;29.90;34.80;;;28.73;36.13;101467.28;12225474;19;20018;-79
2022/07/03 09:19:52;;;;;;;1.70;1.60;;;30.00;34.80;;;28.48;35.96;101408.44;12222660;19;20015;-79
2022/07/03 09:24:02;;;;;;;1.80;1.63;;;30.20;34.50;;;28.80;35.92;101452.06;12227655;19;20018;-79
2022/07/03 09:28:04;;;;;;;1.75;1.63;;;30.30;34.60;;;28.86;36.08;101441.38;12227791;19;20010;-79
2022/07/03 09:32:06;;;;;;;2.10;1.88;;;30.30;34.60;;;28.94;35.81;101426.19;12228679;19;20022;-78
2022/07/03 09:36:11;;;;;;;1.50;1.40;;;30.40;34.20;;;29.11;35.96;101443.78;12225027;19;20026;-79
2022/07/03 09:40:12;;;;;;;1.77;1.67;;;30.50;34.50;;;29.16;35.61;101432.47;12224130;19;20022;-78
2022/07/03 09:44:45;;;;;;;1.85;1.52;;;30.60;34.40;;;29.27;35.67;101430.13;12227674;19;20011;-79
2022/07/03 09:48:46;;;;;;;1.70;1.60;;;30.60;34.20;;;29.13;35.50;101392.50;12224446;19;20142;-80
2022/07/03 09:52:48;;;;;;;1.60;1.50;;;30.90;34.00;;;29.41;34.94;101416.78;12227722;19;20015;-79
2022/07/03 09:56:50;;;;;;;1.80;1.70;;;30.80;34.00;;;29.53;34.99;101416.06;12224605;19;20494;-79
2022/07/03 10:00:51;;;;;;;1.90;1.80;;;30.90;34.10;;;29.74;35.20;101423.34;12224496;19;20077;-79
2022/07/03 10:05:12;;;;;;;1.60;1.50;;;31.00;33.80;;;29.80;34.87;101410.97;12227567;19;20041;-79
2022/07/03 10:09:20;;;;;;;1.50;1.40;;;31.10;33.70;;;29.92;34.14;101403.16;12222174;19;20367;-78
2022/07/03 10:13:23;;;;;;;1.63;1.48;;;31.50;33.40;;;30.13;34.67;101415.75;12227125;19;20026;-78
2022/07/03 10:17:25;;;;;;;1.63;1.52;;;31.40;33.50;;;30.18;34.52;101413.31;12225184;19;20030;-79
2022/07/03 10:21:26;;;;;;;1.80;1.70;;;31.50;33.40;;;30.32;34.22;101419.63;12220540;19;20034;-78
2022/07/03 10:25:33;;;;;;;1.60;1.50;;;31.60;33.40;;;30.34;33.72;101410.31;12223315;19;20010;-78
2022/07/03 10:29:36;;;;;;;2.10;1.90;;;31.70;33.00;;;30.45;34.18;101413.50;12224131;19;20018;-78
2022/07/03 10:33:38;;;;;;;1.60;1.50;;;31.80;33.50;;;30.11;34.20;101359.38;12226103;19;20516;-79
2022/07/03 10:38:00;;;;;;;1.63;1.52;;;31.80;33.00;;;30.36;33.46;101415.53;12221149;19;20024;-78
2022/07/03 10:50:43;;;;;;;2.00;1.38;;;31.80;32.30;;;30.48;33.47;101388.84;12142971;19;20021;-78
2022/07/03 10:54:52;;;;;;;1.60;1.50;;;31.90;32.60;;;30.53;32.94;101368.31;12210392;19;20081;-81
2022/07/03 10:58:58;;;;;;;1.40;1.30;;;31.90;32.50;;;30.68;32.82;101383.50;12221590;19;20027;-80
2022/07/03 11:02:59;;;;;;;1.50;1.40;;;32.00;32.30;;;30.39;33.13;101337.78;12214128;19;20019;-77
2022/07/03 11:07:01;;;;;;;3.80;1.40;;;32.10;32.30;;;30.71;32.59;101380.44;12223589;19;20042;-78
2022/07/03 11:15:37;;;;;;;1.80;1.70;;;32.10;32.20;;;30.79;32.35;101366.78;12220671;19;20035;-79
2022/07/03 11:19:38;;;;;;;2.25;1.45;;;32.10;31.60;;;30.91;32.59;101364.34;12223067;19;20104;-77
2022/07/03 11:23:57;;;;;;;1.33;1.30;;;32.20;32.20;;;31.08;32.38;101365.63;12219043;19;20022;-77
2022/07/03 11:27:58;;;;;;;2.80;1.42;;;32.20;32.10;;;31.13;32.49;101341.53;12220563;19;20014;-77
2022/07/03 11:32:50;;;;;;;1.42;1.35;;;32.40;32.00;;;31.35;32.03;101347.59;12214024;19;20432;-77
2022/07/03 11:36:51;;;;;;;1.58;1.30;;;32.50;31.70;;;31.41;32.25;101332.47;12222896;19;20007;-76
2022/07/03 11:40:55;;;;;;;1.90;1.60;;;32.70;31.90;;;31.50;31.77;101332.06;12216368;19;20031;-77
2022/07/03 11:44:57;;;;;;;1.35;1.25;;;32.80;31.80;;;31.63;32.08;101339.31;12230219;19;20468;-77
2022/07/03 11:49:13;;;;;;;1.60;1.50;;;32.90;31.70;;;31.70;31.31;101331.19;12232239;19;20010;-77
2022/07/03 11:53:26;;;;;;;1.55;1.40;;;32.90;31.20;;;31.69;31.13;101338.47;12230331;19;20015;-77
2022/07/03 11:57:28;;;;;;;1.38;1.27;;;33.00;31.10;;;31.53;31.35;101307.31;12226994;19;20018;-78
2022/07/03 12:01:36;;;;;;;4.60;1.30;;;33.00;30.80;;;31.48;30.72;101300.91;12222295;19;20641;-78
2022/07/03 12:05:57;;;;;;;1.77;1.52;;;33.00;30.70;;;31.55;31.01;101300.91;12215257;19;20014;-78
2022/07/03 12:09:58;;;;;;;1.40;1.30;;;32.90;31.10;;;31.68;31.31;101304.41;12225713;19;20014;-78
2022/07/03 12:14:00;;;;;;;1.70;1.60;;;33.00;31.60;;;31.78;31.32;101309.38;12217458;19;20034;-78
2022/07/03 12:18:02;;;;;;;1.85;1.30;;;33.10;31.40;;;31.81;31.07;101298.16;12232290;19;20026;-78
2022/07/03 12:22:05;;;;;;;1.92;1.70;;;33.10;31.20;;;31.78;30.79;101284.22;12224284;19;20018;-78
2022/07/03 12:26:06;;;;;;;1.58;1.48;;;33.40;31.10;;;31.69;30.79;101262.84;12232737;19;20043;-78
2022/07/03 12:30:22;;;;;;;1.70;1.60;;;33.20;31.20;;;31.86;30.55;101282.13;12225697;19;20017;-78
2022/07/03 12:34:24;;;;;;;1.25;1.10;;;33.20;31.00;;;31.79;30.89;101273.22;12231856;19;20593;-78
2022/07/03 12:38:30;;;;;;;1.33;1.33;;;33.30;31.10;;;31.83;30.56;101270.94;12225496;19;20014;-79
2022/07/03 12:42:49;;;;;;;1.50;1.40;;;33.20;31.10;;;31.98;30.63;101285.06;12227267;19;20119;-78
2022/07/03 12:46:51;;;;;;;1.50;1.40;;;33.30;31.00;;;31.95;30.68;101274.66;12229976;19;20022;-77
2022/07/03 12:50:54;;;;;;;1.40;1.30;;;33.30;31.00;;;31.86;30.47;101262.38;12225917;19;20017;-78
2022/07/03 12:54:58;;;;;;;1.70;1.30;;;33.30;31.20;;;32.00;30.68;101266.75;12225467;19;20022;-78
2022/07/03 12:59:17;;;;;;;3.83;1.33;;;33.30;30.80;;;31.94;30.58;101245.97;12221390;19;20540;-79
2022/07/03 13:03:36;;;;;;;3.92;1.25;;;33.30;30.60;;;32.11;30.42;101255.28;12228486;19;20010;-78
2022/07/03 13:07:40;;;;;;;1.30;1.20;;;33.30;30.90;;;32.11;30.35;101246.34;12228349;19;20037;-79
2022/07/03 13:11:42;;;;;;;;;;;33.50;30.70;;;32.16;30.89;101233.84;12224289;19;20031;-79
2022/07/03 13:15:44;;;;;;;1.55;1.20;;;33.50;31.90;;;32.15;30.60;101242.16;12227964;19;20000;-78
2022/07/03 13:19:45;;;;;;;1.13;1.10;;;33.50;30.60;;;32.17;30.41;101254.41;12227257;19;20014;-78
2022/07/03 13:23:47;;;;;;;1.50;1.40;;;33.50;30.90;;;32.14;30.17;101235.09;12226840;19;20019;-78
2022/07/03 13:27:49;;;;;;;1.60;1.50;;;33.50;30.50;;;32.08;29.99;101228.69;12231355;19;20025;-78
2022/07/03 13:31:51;;;;;;;1.88;1.52;;;33.50;30.50;;;32.12;30.03;101229.91;12220794;19;20014;-79
2022/07/03 13:35:52;;;;;;;8.63;1.67;;;33.60;30.60;;;32.00;29.77;101212.72;12227212;19;20035;-79
2022/07/03 13:39:54;;;;;;;1.50;1.40;;;33.50;30.60;;;31.92;30.26;101194.88;12223088;19;20058;-78
2022/07/03 13:43:55;;;;;;;1.50;1.40;;;33.50;30.80;;;32.13;30.17;101228.84;12225750;19;20023;-79
2022/07/03 13:47:57;;;;;;;1.70;1.60;;;33.50;30.50;;;32.10;29.74;101223.88;12228509;19;20426;-79
2022/07/03 13:51:58;;;;;;;1.80;1.70;;;33.50;30.40;;;31.86;29.81;101186.75;12224139;19;20015;-79
2022/07/03 13:56:00;;;;;;;1.58;1.48;;;33.50;30.60;;;32.06;29.80;101219.13;12223259;19;20015;-78
2022/07/03 14:00:02;;;;;;;1.65;1.55;;;33.40;30.30;;;32.10;29.82;101218.47;12223413;19;20089;-79
2022/07/03 14:04:11;;;;;;;1.83;1.73;;;33.50;30.60;;;32.11;29.95;101209.34;12225315;19;20023;-78
2022/07/03 14:08:12;;;;;;;1.05;1.05;;;33.50;30.60;;;32.23;29.51;101203.25;12224259;19;20018;-79
2022/07/03 14:12:14;;;;;;;1.35;1.15;;;33.50;30.40;;;32.29;29.60;101191.56;12226299;19;20074;-79
2022/07/03 14:16:16;;;;;;;1.35;1.25;;;33.60;30.30;;;32.47;29.53;101197.09;12227806;19;20042;-78
2022/07/03 14:20:18;;;;;;;2.88;1.40;;;33.70;30.60;;;32.40;29.41;101188.16;12223734;19;20018;-78
2022/07/03 14:24:19;;;;;;;1.40;1.30;;;33.80;30.00;;;32.40;28.82;101186.28;12220771;19;20546;-79
2022/07/03 14:32:42;;;;;;;1.40;1.30;;;33.80;30.00;;;32.22;29.04;101182.63;12225439;19;20026;-78
2022/07/03 14:36:44;;;;;;;1.58;1.48;;;33.70;29.90;;;32.20;29.37;101196.41;12224545;19;20490;-78
2022/07/03 14:40:46;;;;;;;1.35;1.23;;;33.70;30.00;;;31.91;29.05;101149.94;12219930;19;20021;-77
2022/07/03 14:44:47;;;;;;;3.33;1.75;;;33.60;30.00;;;32.11;28.98;101179.59;12225850;19;20015;-78
2022/07/03 14:48:49;;;;;;;1.17;1.15;;;33.50;30.00;;;32.02;29.27;101153.84;12220609;19;20081;-78
2022/07/03 14:52:51;;;;;;;1.10;1.05;;;33.50;30.10;;;32.26;28.99;101168.50;12220859;19;20090;-78
2022/07/03 14:56:59;;;;;;;1.20;1.20;;;33.50;30.10;;;32.32;28.92;101173.00;12218512;19;20015;-78
2022/07/03 15:01:06;;;;;;;1.48;1.38;;;33.60;30.00;;;32.48;28.56;101169.00;12218392;19;20018;-78
2022/07/03 15:05:11;;;;;;;1.67;1.17;;;33.60;30.20;;;32.46;28.85;101148.59;12219516;19;20056;-78
2022/07/03 15:09:22;;;;;;;3.22;1.40;;;33.70;30.10;;;32.67;28.35;101172.59;12219486;19;20022;-78
2022/07/03 15:13:25;;;;;;;1.60;1.50;;;33.80;30.00;;;32.72;28.82;101177.34;12222368;19;20022;-78
2022/07/03 15:17:28;;;;;;;1.98;1.60;;;33.80;29.90;;;32.50;28.76;101145.28;12223464;19;20494;-78
2022/07/03 15:21:34;;;;;;;2.00;1.80;;;33.90;30.00;;;32.67;28.18;101169.06;12231722;19;20025;-78
2022/07/03 15:25:39;;;;;;;1.50;1.40;;;33.90;29.90;;;32.42;28.11;101128.47;12234582;19;20018;-78
2022/07/03 15:29:42;;;;;;;1.45;1.35;;;33.90;29.70;;;32.62;28.55;101156.19;12230629;19;20364;-77
2022/07/03 15:33:43;;;;;;;1.58;1.48;;;34.00;29.80;;;32.46;28.45;101119.69;12234658;19;20019;-78
2022/07/03 15:38:02;;;;;;;1.27;1.25;;;33.90;29.90;;;32.77;28.05;101153.16;12212274;19;20496;-79
2022/07/03 15:42:33;;;;;;;1.10;1.00;;;33.90;29.60;;;32.81;28.29;101151.66;12226730;19;20526;-79
2022/07/03 15:47:13;;;;;;;1.38;1.20;;;34.00;29.80;;;32.84;28.57;101151.25;12230517;19;20017;-79
2022/07/03 15:51:21;;;;;;;1.65;1.13;;;34.00;30.00;;;32.74;27.79;101132.81;12223867;19;20035;-79
2022/07/03 15:55:23;;;;;;;1.80;1.50;;;34.00;29.90;;;32.64;28.33;101126.22;12225699;19;20025;-78
2022/07/03 15:59:29;;;;;;;1.85;1.30;;;34.00;29.80;;;32.66;28.11;101141.19;12221932;19;20086;-78
2022/07/03 16:03:43;;;;;;;1.40;1.30;;;34.00;29.70;;;32.65;28.11;101133.28;12226373;19;20026;-78
2022/07/03 16:07:47;;;;;;;1.48;1.38;;;34.00;29.60;;;32.51;28.03;101121.75;12229972;19;20022;-77
2022/07/03 16:11:50;;;;;;;1.35;1.25;;;33.90;29.70;;;32.45;28.41;101120.72;12228830;19;20026;-77
2022/07/03 16:15:52;;;;;;;1.48;1.38;;;33.90;29.90;;;32.51;28.06;101133.41;12231079;19;20039;-79
2022/07/03 16:19:57;;;;;;;1.30;1.20;;;33.80;29.80;;;32.47;27.85;101132.19;12226608;19;20518;-78
2022/07/03 16:23:59;;;;;;;1.55;1.17;;;33.80;29.70;;;32.44;27.77;101121.78;12229745;19;20018;-79
2022/07/03 16:28:04;;;;;;;3.45;1.30;;;33.70;29.50;;;32.44;28.25;101121.78;12201879;19;20011;-79
2022/07/03 16:32:10;;;;;;;1.20;1.20;;;33.70;29.50;;;32.24;27.89;101085.94;12220213;19;20086;-78
2022/07/03 16:36:21;;;;;;;4.40;1.10;;;33.70;29.50;;;32.10;27.84;101071.72;12223676;19;20020;-78
2022/07/03 16:40:29;;;;;;;1.30;1.20;;;33.60;29.40;;;32.13;28.10;101074.78;12217792;19;20049;-78
2022/07/03 16:44:41;;;;;;;1.83;1.40;;;33.60;29.60;;;32.31;27.84;101102.97;12226569;19;20033;-78
2022/07/03 16:49:01;;;;;;;1.20;1.10;;;33.60;29.90;;;32.01;28.08;101054.13;12225624;19;20022;-78
2022/07/03 16:53:03;;;;;;;1.73;1.05;;;33.50;29.80;;;32.25;28.20;101096.56;12229851;19;20026;-78
2022/07/03 16:57:07;;;;;;;1.30;1.20;;;33.60;29.90;;;32.07;28.18;101064.88;12225528;19;20022;-79
2022/07/03 17:01:12;;;;;;;1.52;1.40;;;33.50;29.70;;;32.11;28.12;101071.50;12217778;19;20025;-78
2022/07/03 17:05:19;;;;;;;2.03;1.60;;;33.50;29.90;;;32.28;27.93;101093.41;12227366;19;20010;-78
2022/07/03 17:09:23;;;;;;;3.22;1.13;;;33.50;29.80;;;32.19;27.73;101086.63;12224097;19;20439;-78
2022/07/03 17:13:25;;;;;;;5.75;2.72;;;33.50;29.60;;;32.02;28.04;101059.28;12229400;19;20611;-78
2022/07/03 17:17:27;;;;;;;4.18;1.92;;;33.40;29.60;;;31.93;27.84;101052.50;12225655;19;20120;-79